createdAt,value
2022-08-18T00:01:05.415Z,26.26
2022-08-18T00:03:56.109Z,26.25
2022-08-18T00:06:19.973Z,26.26
2022-08-18T00:08:46.515Z,26.21
2022-08-18T00:11:13.079Z,26.17
2022-08-18T00:13:39.559Z,26.15
2022-08-18T00:16:06.387Z,26.13
2022-08-18T00:18:32.876Z,26.11
2022-08-18T00:21:00.078Z,26.11
2022-08-18T00:23:29.807Z,26.08
2022-08-18T00:25:57.720Z,26.07
2022-08-18T00:28:26.569Z,26.06
2022-08-18T00:30:53.759Z,26.05
2022-08-18T00:33:21.500Z,26.04
2022-08-18T00:35:48.875Z,26.02
2022-08-18T00:38:24.493Z,26.02
2022-08-18T00:40:54.068Z,26.04
2022-08-18T00:43:46.004Z,26.18
2022-08-18T00:46:18.627Z,26.07
2022-08-18T00:48:48.672Z,25.99
2022-08-18T00:51:23.594Z,26.02
2022-08-18T00:54:23.972Z,26.13
2022-08-18T00:57:00.883Z,25.99
2022-08-18T00:59:44.631Z,26.05
2022-08-18T01:02:24.348Z,26.04
2022-08-18T01:05:27.720Z,26.01
2022-08-18T01:07:54.533Z,25.91
2022-08-18T01:10:23.530Z,25.89
2022-08-18T01:12:53.863Z,25.90
2022-08-18T01:15:29.271Z,25.84
2022-08-18T01:18:18.274Z,25.86
2022-08-18T01:21:28.846Z,25.87
2022-08-18T01:23:56.111Z,25.82
2022-08-18T01:26:24.214Z,25.79
2022-08-18T01:28:50.867Z,25.77
2022-08-18T01:31:55.045Z,25.92
2022-08-18T01:34:24.753Z,25.75
2022-08-18T01:36:52.978Z,25.72
2022-08-18T01:41:25.162Z,25.69
2022-08-18T01:42:06.784Z,25.71
2022-08-18T01:44:33.849Z,25.68
2022-08-18T01:47:00.388Z,25.65
2022-08-18T01:49:28.984Z,25.63
2022-08-18T01:51:56.068Z,25.61
2022-08-18T01:54:22.880Z,25.59
2022-08-18T01:56:49.578Z,25.58
2022-08-18T01:59:16.170Z,25.55
2022-08-18T02:01:50.642Z,25.56
2022-08-18T02:04:35.035Z,25.57
2022-08-18T02:07:04.503Z,25.54
2022-08-18T02:09:31.266Z,25.51
2022-08-18T02:11:57.780Z,25.50
2022-08-18T02:14:25.158Z,25.49
2022-08-18T02:16:59.425Z,25.52
2022-08-18T02:19:36.811Z,25.51
2022-08-18T02:22:03.632Z,25.46
2022-08-18T02:24:30.250Z,25.45
2022-08-18T02:26:57.337Z,25.43
2022-08-18T02:29:23.937Z,25.42
2022-08-18T02:31:50.893Z,25.41
2022-08-18T02:34:17.956Z,25.41
2022-08-18T02:36:44.538Z,25.38
2022-08-18T02:39:11.350Z,25.39
2022-08-18T02:41:37.905Z,25.37
2022-08-18T02:44:07.168Z,25.39
2022-08-18T02:46:33.961Z,25.35
2022-08-18T02:49:00.781Z,25.34
2022-08-18T02:51:27.445Z,25.34
2022-08-18T02:53:54.422Z,25.32
2022-08-18T02:56:35.692Z,25.36
2022-08-18T02:59:08.997Z,25.71
2022-08-18T03:01:39.580Z,25.40
2022-08-18T03:04:09.072Z,25.32
2022-08-18T03:06:37.494Z,25.27
2022-08-18T03:09:06.019Z,25.25
2022-08-18T03:11:32.566Z,25.21
2022-08-18T03:14:00.518Z,25.20
2022-08-18T03:16:31.166Z,25.19
2022-08-18T03:18:57.657Z,25.17
2022-08-18T03:21:27.874Z,25.17
2022-08-18T03:24:00.951Z,25.15
2022-08-18T03:26:30.441Z,25.14
2022-08-18T03:28:58.283Z,25.13
2022-08-18T03:31:27.974Z,25.11
2022-08-18T03:33:57.213Z,25.10
2022-08-18T03:36:29.048Z,25.10
2022-08-18T03:38:55.907Z,25.07
2022-08-18T03:41:57.417Z,25.07
2022-08-18T03:44:14.794Z,25.07
2022-08-18T03:46:45.259Z,25.08
2022-08-18T03:49:12.455Z,25.00
2022-08-18T03:51:43.704Z,25.03
2022-08-18T03:54:13.237Z,24.97
2022-08-18T03:56:41.629Z,24.96
2022-08-18T03:59:12.914Z,25.01
2022-08-18T04:01:41.688Z,24.97
2022-08-18T04:04:10.914Z,24.97
2022-08-18T04:06:42.531Z,25.00
2022-08-18T04:09:13.162Z,24.98
2022-08-18T04:11:44.771Z,24.94
2022-08-18T04:14:18.242Z,24.99
2022-08-18T04:16:45.508Z,24.92
2022-08-18T04:19:13.746Z,24.92
2022-08-18T04:21:42.332Z,24.91
2022-08-18T04:24:10.606Z,24.90
2022-08-18T04:26:46.257Z,24.96
2022-08-18T04:29:15.440Z,24.91
2022-08-18T04:31:41.986Z,24.89
2022-08-18T04:34:08.535Z,24.88
2022-08-18T04:36:36.771Z,24.88
2022-08-18T04:39:05.839Z,24.90
2022-08-18T04:41:32.541Z,24.87
2022-08-18T04:44:02.800Z,24.90
2022-08-18T04:46:30.922Z,24.87
2022-08-18T04:49:00.506Z,24.92
2022-08-18T04:52:26.584Z,24.89
2022-08-18T04:54:16.296Z,24.87
2022-08-18T04:56:43.637Z,24.88
2022-08-18T04:59:14.357Z,24.92
2022-08-18T05:01:48.080Z,24.91
2022-08-18T05:04:16.953Z,24.88
2022-08-18T05:06:45.198Z,24.89
2022-08-18T05:09:16.850Z,24.88
2022-08-18T05:11:50.625Z,24.89
2022-08-18T05:14:18.053Z,24.90
2022-08-18T05:16:48.573Z,24.92
2022-08-18T05:19:19.878Z,24.92
2022-08-18T05:21:51.398Z,24.93
2022-08-18T05:24:19.189Z,24.94
2022-08-18T05:26:46.356Z,24.97
2022-08-18T05:29:18.410Z,24.98
2022-08-18T05:31:46.377Z,25.00
2022-08-18T05:34:12.931Z,25.02
2022-08-18T05:37:02.737Z,25.17
2022-08-18T05:39:43.181Z,25.14
2022-08-18T05:42:19.973Z,25.15
2022-08-18T05:44:48.025Z,25.48
2022-08-18T05:47:29.823Z,25.30
2022-08-18T05:50:02.729Z,25.21
2022-08-18T05:52:35.408Z,25.24
2022-08-18T05:55:28.757Z,25.25
2022-08-18T05:58:01.922Z,25.32
2022-08-18T06:00:29.848Z,25.30
2022-08-18T06:03:03.329Z,25.35
2022-08-18T06:05:40.810Z,25.42
2022-08-18T06:08:16.777Z,25.46
2022-08-18T06:10:50.574Z,25.48
2022-08-18T06:13:20.108Z,25.46
2022-08-18T06:16:21.242Z,25.60
2022-08-18T06:19:03.442Z,25.65
2022-08-18T06:22:08.649Z,25.74
2022-08-18T06:24:41.581Z,25.72
2022-08-18T06:27:40.996Z,25.87
2022-08-18T06:30:15.101Z,25.80
2022-08-18T06:32:53.194Z,25.86
2022-08-18T06:35:52.123Z,25.94
2022-08-18T06:38:45.780Z,25.85
2022-08-18T06:41:42.510Z,25.89
2022-08-18T06:44:16.361Z,25.92
2022-08-18T06:46:54.474Z,25.93
2022-08-18T06:49:42.764Z,26.05
2022-08-18T06:52:29.303Z,26.02
2022-08-18T06:55:02.517Z,25.94
2022-08-18T06:57:38.257Z,25.97
2022-08-18T07:00:08.462Z,25.91
2022-08-18T07:02:42.114Z,25.90
2022-08-18T07:05:20.640Z,25.94
2022-08-18T07:08:01.035Z,25.95
2022-08-18T07:10:34.526Z,25.83
2022-08-18T07:13:13.186Z,25.90
2022-08-18T07:15:40.743Z,25.80
2022-08-18T07:18:08.722Z,25.80
2022-08-18T07:20:54.098Z,25.89
2022-08-18T07:23:40.195Z,25.93
2022-08-18T07:26:17.363Z,25.96
2022-08-18T07:28:50.007Z,25.89
2022-08-18T07:31:40.138Z,26.04
2022-08-18T07:34:25.622Z,25.97
2022-08-18T07:37:04.371Z,25.93
2022-08-18T07:39:37.424Z,25.85
2022-08-18T07:42:34.942Z,25.78
2022-08-18T07:45:12.530Z,25.79
2022-08-18T07:47:51.917Z,25.81
2022-08-18T07:50:36.458Z,25.74
2022-08-18T07:53:12.079Z,25.75
2022-08-18T07:55:48.152Z,25.76
2022-08-18T07:58:29.179Z,25.80
2022-08-18T08:01:23.727Z,25.92
2022-08-18T08:04:02.475Z,25.91
2022-08-18T08:06:37.944Z,25.91
2022-08-18T08:09:30.060Z,26.06
2022-08-18T08:12:01.987Z,26.05
2022-08-18T08:14:41.504Z,26.13
2022-08-18T08:17:32.549Z,26.26
2022-08-18T08:20:19.543Z,26.53
2022-08-18T08:23:01.299Z,26.68
2022-08-18T08:25:47.215Z,26.82
2022-08-18T08:28:33.953Z,26.89
2022-08-18T08:31:37.175Z,27.09
2022-08-18T08:34:17.471Z,27.22
2022-08-18T08:36:46.828Z,27.26
2022-08-18T08:39:51.240Z,27.44
2022-08-18T08:42:45.541Z,27.57
2022-08-18T08:45:18.082Z,27.60
2022-08-18T08:48:00.170Z,27.66
2022-08-18T08:50:41.296Z,27.73
2022-08-18T08:53:23.385Z,27.90
2022-08-18T08:56:02.058Z,27.94
2022-08-18T08:58:34.287Z,27.99
2022-08-18T09:01:02.545Z,28.04
2022-08-18T09:03:43.581Z,28.20
2022-08-18T09:06:25.384Z,28.26
2022-08-18T09:09:09.037Z,28.32
2022-08-18T09:12:03.952Z,28.47
2022-08-18T09:14:39.463Z,28.51
2022-08-18T09:17:35.526Z,28.70
2022-08-18T09:20:20.581Z,28.67
2022-08-18T09:22:54.810Z,28.80
2022-08-18T09:25:39.981Z,29.00
2022-08-18T09:28:13.197Z,29.03
2022-08-18T09:30:55.203Z,29.16
2022-08-18T09:33:26.389Z,29.21
2022-08-18T09:36:19.909Z,29.29
2022-08-18T09:39:20.478Z,29.26
2022-08-18T09:41:58.497Z,29.32
2022-08-18T09:44:47.526Z,29.42
2022-08-18T09:47:27.473Z,29.39
2022-08-18T09:50:26.949Z,29.33
2022-08-18T09:53:34.130Z,29.50
2022-08-18T09:56:04.886Z,29.36
2022-08-18T09:58:49.907Z,29.44
2022-08-18T10:01:36.234Z,29.42
2022-08-18T10:04:14.743Z,29.48
2022-08-18T10:06:48.154Z,29.35
2022-08-18T10:09:47.883Z,29.42
2022-08-18T10:12:21.448Z,29.37
2022-08-18T10:18:41.797Z,29.47
2022-08-18T10:21:22.786Z,29.42
2022-08-18T10:26:43.827Z,29.33
2022-08-18T10:29:27.183Z,29.36
2022-08-18T10:34:51.426Z,29.39
2022-08-18T10:37:49.103Z,29.56
2022-08-18T10:40:22.379Z,29.46
2022-08-18T10:46:25.310Z,29.52
2022-08-18T10:49:00.531Z,29.64
2022-08-18T10:52:00.069Z,29.72
2022-08-18T10:54:51.306Z,29.69
2022-08-18T10:58:09.832Z,29.79
2022-08-18T11:00:51.860Z,29.74
2022-08-18T11:03:51.635Z,29.85
2022-08-18T11:06:27.231Z,29.86
2022-08-18T11:09:00.653Z,29.98
2022-08-18T11:11:41.442Z,30.11
2022-08-18T11:14:37.457Z,30.28
2022-08-18T11:17:22.929Z,30.44
2022-08-18T11:19:54.087Z,30.52
2022-08-18T11:22:32.570Z,30.69
2022-08-18T11:25:00.983Z,30.77
2022-08-18T11:27:35.763Z,30.85
2022-08-18T11:30:05.598Z,30.91
2022-08-18T11:32:39.738Z,30.93
2022-08-18T11:35:27.664Z,31.06
2022-08-18T11:41:20.085Z,31.24
2022-08-18T11:43:50.621Z,31.15
2022-08-18T11:46:24.946Z,31.27
2022-08-18T11:48:55.820Z,31.35
2022-08-18T11:51:27.243Z,31.48
2022-08-18T11:53:59.006Z,31.58
2022-08-18T11:56:37.948Z,31.70
2022-08-18T11:59:08.047Z,31.75
2022-08-18T12:01:42.204Z,31.76
2022-08-18T12:04:28.956Z,31.85
2022-08-18T12:06:55.589Z,31.75
2022-08-18T12:12:32.736Z,31.77
2022-08-18T12:15:14.012Z,31.58
2022-08-18T12:17:52.591Z,31.51
2022-08-18T12:20:21.210Z,31.48
2022-08-18T12:22:49.627Z,31.39
2022-08-18T12:25:25.472Z,31.34
2022-08-18T12:27:53.158Z,31.27
2022-08-18T12:30:20.181Z,31.18
2022-08-18T12:32:56.034Z,31.13
2022-08-18T12:35:32.621Z,31.06
2022-08-18T12:40:47.990Z,30.95
2022-08-18T12:43:14.637Z,30.87
2022-08-18T12:45:41.814Z,30.79
2022-08-18T12:48:09.394Z,30.73
2022-08-18T12:50:50.027Z,30.66
2022-08-18T12:56:30.112Z,30.99
2022-08-18T12:58:59.733Z,30.54
2022-08-18T13:01:26.779Z,30.44
2022-08-18T13:04:12.858Z,30.38
2022-08-18T13:06:59.395Z,30.42
2022-08-18T13:09:42.664Z,30.31
2022-08-18T13:12:18.468Z,30.29
2022-08-18T13:14:46.695Z,30.27
2022-08-18T13:17:30.701Z,30.26
2022-08-18T13:20:02.383Z,30.27
2022-08-18T13:22:32.405Z,30.24
2022-08-18T13:24:59.647Z,30.23
2022-08-18T13:27:27.113Z,30.22
2022-08-18T13:29:59.343Z,30.23
2022-08-18T13:32:26.288Z,30.23
2022-08-18T13:34:56.556Z,30.24
2022-08-18T13:37:26.558Z,30.25
2022-08-18T13:39:54.664Z,30.26
2022-08-18T13:42:21.553Z,30.25
2022-08-18T13:45:25.186Z,30.33
2022-08-18T13:47:51.290Z,30.25
2022-08-18T13:50:19.666Z,30.24
2022-08-18T13:52:46.699Z,30.21
2022-08-18T13:55:16.887Z,30.19
2022-08-18T13:57:49.634Z,30.18
2022-08-18T14:00:27.759Z,30.20
2022-08-18T14:02:59.030Z,30.16
2022-08-18T14:05:36.605Z,30.14
2022-08-18T14:08:19.053Z,30.16
2022-08-18T14:10:51.983Z,30.16
2022-08-18T14:13:20.918Z,30.09
2022-08-18T14:15:54.870Z,30.08
2022-08-18T14:18:28.668Z,30.07
2022-08-18T14:21:15.601Z,30.05
2022-08-18T14:24:00.759Z,30.08
2022-08-18T14:26:51.228Z,30.02
2022-08-18T14:29:46.293Z,30.01
2022-08-18T14:32:06.614Z,30.00
2022-08-18T14:34:33.176Z,29.99
2022-08-18T14:36:59.924Z,29.97
2022-08-18T14:39:27.635Z,29.97
2022-08-18T14:41:56.095Z,29.94
2022-08-18T14:44:23.619Z,29.96
2022-08-18T14:46:52.091Z,29.95
2022-08-18T14:49:29.206Z,29.95
2022-08-18T14:51:57.311Z,29.96
2022-08-18T14:54:28.228Z,29.95
2022-08-18T14:56:55.470Z,29.94
2022-08-18T14:59:23.260Z,29.91
2022-08-18T15:01:51.449Z,29.90
2022-08-18T15:04:19.711Z,29.88
2022-08-18T15:06:51.231Z,29.88
2022-08-18T15:09:23.332Z,29.85
2022-08-18T15:11:51.106Z,29.82
2022-08-18T15:14:18.977Z,29.80
2022-08-18T15:16:46.951Z,29.78
2022-08-18T15:19:57.524Z,29.74
2022-08-18T15:22:18.677Z,29.75
2022-08-18T15:25:04.002Z,29.71
2022-08-18T15:27:42.437Z,29.68
2022-08-18T15:30:19.505Z,29.69
2022-08-18T15:32:49.774Z,29.63
2022-08-18T15:35:19.479Z,29.60
2022-08-18T15:37:51.107Z,29.56
2022-08-18T15:40:30.825Z,29.64
2022-08-18T15:43:09.696Z,29.56
2022-08-18T15:45:43.388Z,29.46
2022-08-18T15:48:24.542Z,29.48
2022-08-18T15:50:52.152Z,29.43
2022-08-18T15:53:21.796Z,29.46
2022-08-18T15:55:50.259Z,29.44
2022-08-18T15:58:22.168Z,29.44
2022-08-18T16:00:50.510Z,29.43
2022-08-18T16:03:17.638Z,29.45
2022-08-18T16:05:51.710Z,29.52
2022-08-18T16:08:21.741Z,29.45
2022-08-18T16:10:48.500Z,29.45
2022-08-18T16:13:15.085Z,29.43
2022-08-18T16:15:46.724Z,29.44
2022-08-18T16:18:15.486Z,29.42
2022-08-18T16:20:43.478Z,29.41
2022-08-18T16:23:12.366Z,29.38
2022-08-18T16:25:42.113Z,29.43
2022-08-18T16:28:09.234Z,29.35
2022-08-18T16:30:36.160Z,29.33
2022-08-18T16:33:05.460Z,29.33
2022-08-18T16:35:33.332Z,29.29
2022-08-18T16:38:08.877Z,29.34
2022-08-18T16:40:36.628Z,29.24
2022-08-18T16:43:04.006Z,29.17
2022-08-18T16:45:32.944Z,29.12
2022-08-18T16:47:59.834Z,29.05
2022-08-18T16:50:27.368Z,29.00
2022-08-18T16:52:54.345Z,28.91
2022-08-18T16:55:21.443Z,28.85
2022-08-18T16:58:06.344Z,28.76
2022-08-18T17:00:54.934Z,28.68
2022-08-18T17:03:41.781Z,28.60
2022-08-18T17:06:11.853Z,28.57
2022-08-18T17:08:39.153Z,28.43
2022-08-18T17:11:09.508Z,28.40
2022-08-18T17:13:36.875Z,28.28
2022-08-18T17:16:03.886Z,28.22
2022-08-18T17:18:30.555Z,28.17
2022-08-18T17:21:05.566Z,28.18
2022-08-18T17:23:33.346Z,28.06
2022-08-18T17:26:02.673Z,28.01
2022-08-18T17:28:52.587Z,28.12
2022-08-18T17:31:24.505Z,27.91
2022-08-18T17:33:55.686Z,27.88
2022-08-18T17:36:30.919Z,27.86
2022-08-18T17:39:01.139Z,27.74
2022-08-18T17:41:28.262Z,27.67
2022-08-18T17:43:57.462Z,27.63
2022-08-18T17:46:30.232Z,27.64
2022-08-18T17:50:26.780Z,27.78
2022-08-18T17:52:56.388Z,27.55
2022-08-18T17:55:27.032Z,27.49
2022-08-18T17:58:03.604Z,27.45
2022-08-18T18:00:32.498Z,27.36
2022-08-18T18:02:59.346Z,27.31
2022-08-18T18:05:35.529Z,27.32
2022-08-18T18:08:02.249Z,27.24
2022-08-18T18:11:04.661Z,27.34
2022-08-18T18:13:33.532Z,27.16
2022-08-18T18:16:18.629Z,27.15
2022-08-18T18:18:46.081Z,27.10
2022-08-18T18:21:15.381Z,27.12
2022-08-18T18:23:59.193Z,27.16
2022-08-18T18:26:34.563Z,27.11
2022-08-18T18:29:33.321Z,27.13
2022-08-18T18:32:24.192Z,27.01
2022-08-18T18:35:11.591Z,27.07
2022-08-18T18:37:59.335Z,27.09
2022-08-18T18:40:25.959Z,26.87
2022-08-18T18:42:53.351Z,26.82
2022-08-18T18:45:22.548Z,26.83
2022-08-18T18:48:01.691Z,26.88
2022-08-18T18:50:31.968Z,26.79
2022-08-18T18:53:23.639Z,26.84
2022-08-18T18:56:07.419Z,26.82
2022-08-18T18:58:48.764Z,26.73
2022-08-18T19:01:35.243Z,26.72
2022-08-18T19:04:14.086Z,26.67
2022-08-18T19:06:52.185Z,26.60
2022-08-18T19:09:29.771Z,26.46
2022-08-18T19:12:17.684Z,26.59
2022-08-18T19:15:14.798Z,26.59
2022-08-18T19:17:46.719Z,26.39
2022-08-18T19:20:20.067Z,26.32
2022-08-18T19:23:10.977Z,26.40
2022-08-18T19:25:46.921Z,26.24
2022-08-18T19:28:22.585Z,26.23
2022-08-18T19:30:53.317Z,26.14
2022-08-18T19:33:43.692Z,26.25
2022-08-18T19:36:18.673Z,26.05
2022-08-18T19:38:58.542Z,26.10
2022-08-18T19:41:39.095Z,26.06
2022-08-18T19:44:37.005Z,26.16
2022-08-18T19:47:08.545Z,26.09
2022-08-18T19:49:48.493Z,26.10
2022-08-18T19:52:45.353Z,26.18
2022-08-18T19:55:54.071Z,26.32
2022-08-18T19:58:23.290Z,26.25
2022-08-18T20:00:49.786Z,26.26
2022-08-18T20:03:25.486Z,26.38
2022-08-18T20:06:34.173Z,26.50
2022-08-18T20:09:31.001Z,26.61
2022-08-18T20:12:12.026Z,26.52
2022-08-18T20:14:42.457Z,26.48
2022-08-18T20:17:08.899Z,26.49
2022-08-18T20:19:41.059Z,26.56
2022-08-18T20:22:26.753Z,26.59
2022-08-18T20:25:12.339Z,26.71
2022-08-18T20:27:49.433Z,26.61
2022-08-18T20:30:52.001Z,26.76
2022-08-18T20:33:25.699Z,26.64
2022-08-18T20:36:45.547Z,26.76
2022-08-18T20:39:32.278Z,26.80
2022-08-18T20:42:00.116Z,26.66
2022-08-18T20:44:42.470Z,26.72
2022-08-18T20:47:39.694Z,26.75
2022-08-18T20:50:34.030Z,26.81
2022-08-18T20:53:26.158Z,26.83
2022-08-18T20:56:32.282Z,26.80
2022-08-18T20:59:23.271Z,26.72
2022-08-18T21:01:58.284Z,26.69
2022-08-18T21:04:47.297Z,26.73
2022-08-18T21:07:37.422Z,26.75
2022-08-18T21:10:36.846Z,26.82
2022-08-18T21:13:05.350Z,26.61
2022-08-18T21:15:38.124Z,26.62
2022-08-18T21:18:08.799Z,26.56
2022-08-18T21:20:35.624Z,26.50
2022-08-18T21:23:11.867Z,26.57
2022-08-18T21:25:52.670Z,26.58
2022-08-18T21:28:21.647Z,26.42
2022-08-18T21:31:41.822Z,26.47
2022-08-18T21:33:49.414Z,26.44
2022-08-18T21:36:19.046Z,26.38
2022-08-18T21:38:58.445Z,26.39
2022-08-18T21:41:33.482Z,26.72
2022-08-18T21:44:07.167Z,26.43
2022-08-18T21:46:33.971Z,26.29
2022-08-18T21:49:03.728Z,26.29
2022-08-18T21:51:46.155Z,26.33
2022-08-18T21:54:17.054Z,26.25
2022-08-18T21:56:44.066Z,26.18
2022-08-18T21:59:13.975Z,26.19
2022-08-18T22:01:53.724Z,26.25
2022-08-18T22:04:37.916Z,26.20
2022-08-18T22:07:16.954Z,26.16
2022-08-18T22:10:39.242Z,26.12
2022-08-18T22:13:24.761Z,26.03
2022-08-18T22:15:51.500Z,25.97
2022-08-18T22:18:17.973Z,25.92
2022-08-18T22:20:50.680Z,25.95
2022-08-18T22:23:35.587Z,25.87
2022-08-18T22:26:13.355Z,26.27
2022-08-18T22:28:51.828Z,26.02
2022-08-18T22:31:21.201Z,25.86
2022-08-18T22:33:48.466Z,25.86
2022-08-18T22:36:19.664Z,25.92
2022-08-18T22:38:47.632Z,25.88
2022-08-18T22:41:15.988Z,25.88
2022-08-18T22:43:42.528Z,25.91
2022-08-18T22:46:09.060Z,25.92
2022-08-18T22:48:35.592Z,25.92
2022-08-18T22:51:02.116Z,25.93
2022-08-18T22:53:29.174Z,25.94
2022-08-18T22:55:59.353Z,25.95
2022-08-18T22:58:32.361Z,26.00
2022-08-18T23:01:05.357Z,26.00
2022-08-18T23:03:34.569Z,26.02
